Time;durP1;ratioP1;P1;durP2;ratioP2;P2;SDS_P1;SDS_P2;PMS_P1;PMS_P2;Temp;Humidity;BMP_temperature;BMP_pressure;BME280_temperature;BME280_humidity;BME280_pressure;Samples;Min_cycle;Max_cycle;Signal;HPM_P1;HPM_P2
2022/07/24 00:01:20;;;;;;;6.95;2.30;;;;;;;25.96;44.89;100600.31;2057305;28;20495;-79
2022/07/24 00:02:43;;;;;;;7.13;2.35;;;;;;;25.98;45.01;100604.72;2076799;28;20823;-79
2022/07/24 00:04:04;;;;;;;8.38;2.75;;;;;;;25.99;44.87;100602.88;2067586;28;20163;-79
2022/07/24 00:05:27;;;;;;;;;;;;;;;25.97;44.80;100594.84;2057252;28;20051;-79
2022/07/24 00:06:49;;;;;;;3.75;2.00;;;;;;;25.97;44.59;100596.66;2051918;28;19929;-79
2022/07/24 00:08:12;;;;;;;9.60;2.90;;;;;;;25.95;44.87;100602.13;2064961;28;20423;-80
2022/07/24 00:09:35;;;;;;;18.63;2.80;;;;;;;25.92;45.02;100599.59;2070851;28;20076;-80
2022/07/24 00:10:57;;;;;;;4.88;2.00;;;;;;;25.90;45.04;100597.91;2069713;28;20049;-81
2022/07/24 00:12:20;;;;;;;6.25;2.38;;;;;;;25.90;44.88;100603.34;2069894;28;20600;-80
2022/07/24 00:13:42;;;;;;;12.05;2.63;;;;;;;25.89;44.72;100599.75;2068935;28;20571;-80
2022/07/24 00:15:06;;;;;;;6.82;2.53;;;;;;;25.89;45.04;100591.63;2073793;28;20048;-80
2022/07/24 00:16:29;;;;;;;5.38;2.30;;;;;;;25.89;44.73;100590.75;2063838;28;20088;-79
2022/07/24 00:17:51;;;;;;;4.07;2.17;;;;;;;25.88;44.73;100591.69;2070811;28;20492;-79
2022/07/24 00:19:13;;;;;;;8.57;2.47;;;;;;;25.88;44.97;100592.56;2070144;28;20056;-79
2022/07/24 00:20:35;;;;;;;5.25;2.35;;;;;;;25.91;44.89;100594.28;2072942;28;20069;-79
2022/07/24 00:21:59;;;;;;;6.60;2.10;;;;;;;25.90;44.52;100593.38;2076547;28;20056;-80
2022/07/24 00:23:23;;;;;;;7.53;3.00;;;;;;;25.87;44.64;100593.53;2071466;28;20045;-79
2022/07/24 00:24:45;;;;;;;7.38;2.33;;;;;;;25.85;44.67;100591.88;2070547;28;20046;-79
2022/07/24 00:26:08;;;;;;;9.40;2.45;;;;;;;25.83;44.87;100594.66;2070472;28;20041;-79
2022/07/24 00:27:30;;;;;;;9.00;2.85;;;;;;;25.82;44.75;100595.59;2068395;28;20050;-78
2022/07/24 00:28:53;;;;;;;6.50;2.25;;;;;;;25.79;44.98;100591.25;2069242;28;20065;-78
2022/07/24 00:30:14;;;;;;;6.47;2.35;;;;;;;25.78;45.12;100591.31;2070261;28;20046;-79
2022/07/24 00:31:38;;;;;;;8.30;2.47;;;;;;;25.74;45.12;100581.56;2065360;28;20141;-80
2022/07/24 00:32:59;;;;;;;9.73;2.60;;;;;;;25.72;45.37;100595.19;2062274;28;20054;-79
2022/07/24 00:34:22;;;;;;;8.27;3.10;;;;;;;25.71;45.49;100585.31;2070114;28;20045;-79
2022/07/24 00:35:45;;;;;;;7.65;2.22;;;;;;;25.70;45.32;100588.09;2054290;28;20047;-80
2022/07/24 00:37:07;;;;;;;5.75;2.15;;;;;;;25.67;45.37;100588.22;2064060;28;20051;-80
2022/07/24 00:38:30;;;;;;;7.75;2.58;;;;;;;25.65;45.43;100588.34;2078459;28;20128;-79
2022/07/24 00:39:51;;;;;;;8.60;3.13;;;;;;;25.65;45.54;100590.16;2078080;28;20148;-80
2022/07/24 00:41:14;;;;;;;6.25;2.13;;;;;;;25.66;45.42;100594.63;2078263;28;20057;-80
2022/07/24 00:42:36;;;;;;;5.45;2.30;;;;;;;25.66;45.43;100590.09;2081251;28;20037;-80
2022/07/24 00:43:59;;;;;;;6.22;2.20;;;;;;;25.65;45.50;100592.88;2080991;28;20050;-79
2022/07/24 00:45:21;;;;;;;6.95;2.72;;;;;;;25.64;45.55;100591.09;2074876;28;20042;-80
2022/07/24 00:46:48;;;;;;;6.28;2.38;;;;;;;25.61;45.79;100583.13;2070304;28;20086;-81
2022/07/24 00:48:11;;;;;;;7.00;2.28;;;;;;;25.60;45.79;100582.25;2070398;28;20054;-81
2022/07/24 00:49:32;;;;;;;6.50;2.83;;;;;;;25.61;45.52;100584.00;2069308;28;20053;-80
2022/07/24 00:50:54;;;;;;;11.10;2.55;;;;;;;25.60;45.75;100589.53;2070408;28;20137;-82
2022/07/24 00:52:17;;;;;;;8.05;2.30;;;;;;;25.58;45.80;100588.72;2070330;28;20699;-83
2022/07/24 00:53:38;;;;;;;6.45;2.35;;;;;;;25.57;45.78;100585.13;2070196;28;20077;-80
2022/07/24 00:55:01;;;;;;;9.27;2.58;;;;;;;25.56;45.60;100583.34;2071300;28;20045;-82
2022/07/24 00:56:22;;;;;;;7.13;2.13;;;;;;;25.57;45.83;100586.91;2061961;28;20078;-80
2022/07/24 00:57:48;;;;;;;8.25;3.15;;;;;;;25.60;45.51;100600.34;2073847;28;20097;-81
2022/07/24 00:59:11;;;;;;;8.90;2.42;;;;;;;25.58;45.60;100589.59;2073961;28;20091;-81
2022/07/24 01:00:33;;;;;;;8.50;2.28;;;;;;;25.60;45.61;100584.09;2078262;28;20045;-79
2022/07/24 01:01:57;;;;;;;5.90;2.13;;;;;;;25.61;45.85;100586.72;2086383;28;20497;-80
2022/07/24 01:03:20;;;;;;;6.93;2.50;;;;;;;25.61;45.92;100584.00;2072661;28;20062;-80
2022/07/24 01:04:41;;;;;;;4.15;2.42;;;;;;;25.63;45.60;100592.06;2072751;28;20124;-80
2022/07/24 01:06:05;;;;;;;3.50;1.80;;;;;;;25.62;45.97;100576.78;2062124;28;20058;-80
2022/07/24 01:07:28;;;;;;;6.97;2.20;;;;;;;25.62;46.04;100593.00;2062103;28;20054;-77
2022/07/24 01:08:51;;;;;;;7.07;2.15;;;;;;;25.62;46.07;100584.88;2061877;28;20058;-81
2022/07/24 01:10:13;;;;;;;5.43;2.50;;;;;;;25.59;46.24;100590.47;2070390;28;20453;-81
2022/07/24 01:11:35;;;;;;;9.10;2.28;;;;;;;25.58;46.03;100588.72;2069902;28;20061;-80
2022/07/24 01:12:58;;;;;;;5.68;2.40;;;;;;;25.57;46.18;100585.13;2059977;28;20046;-80
2022/07/24 01:14:19;;;;;;;5.07;2.50;;;;;;;25.56;45.99;100586.03;2066058;28;20410;-80
2022/07/24 01:15:42;;;;;;;5.47;2.08;;;;;;;25.53;46.41;100577.22;2068710;28;20049;-81
2022/07/24 01:17:05;;;;;;;10.32;3.00;;;;;;;25.53;46.50;100588.03;2068403;28;20066;-80
2022/07/24 01:18:27;;;;;;;6.30;2.28;;;;;;;25.54;46.53;100584.34;2070025;28;20478;-80
2022/07/24 01:19:50;;;;;;;6.18;2.13;;;;;;;25.51;46.62;100585.41;2069668;28;20050;-80
2022/07/24 01:21:14;;;;;;;7.30;2.75;;;;;;;25.51;46.54;100577.28;2064481;28;20081;-80
2022/07/24 01:22:36;;;;;;;8.07;2.60;;;;;;;25.53;46.38;100577.22;2059307;28;20351;-80
2022/07/24 01:23:59;;;;;;;9.60;2.35;;;;;;;25.50;46.34;100578.22;2067435;28;20077;-81
2022/07/24 01:25:21;;;;;;;7.57;2.40;;;;;;;25.50;46.50;100582.75;2062099;28;20494;-80
2022/07/24 01:26:43;;;;;;;8.48;2.55;;;;;;;25.50;46.51;100580.94;2062186;28;20062;-81
2022/07/24 01:28:05;;;;;;;5.40;2.22;;;;;;;25.51;46.41;100581.81;2053649;28;20154;-80
2022/07/24 01:29:27;;;;;;;5.70;2.08;;;;;;;25.51;46.38;100584.50;2058500;28;20518;-80
2022/07/24 01:30:49;;;;;;;8.02;2.17;;;;;;;25.52;46.43;100591.69;2061926;28;20046;-79
2022/07/24 01:32:11;;;;;;;6.20;2.38;;;;;;;25.53;46.47;100588.03;2068256;28;20077;-78
2022/07/24 01:33:33;;;;;;;3.97;1.90;;;;;;;25.54;46.47;100587.06;2069550;28;20559;-79
2022/07/24 01:34:56;;;;;;;10.63;2.95;;;;;;;25.56;46.46;100594.16;2069649;28;20513;-79
2022/07/24 01:36:20;;;;;;;4.82;2.10;;;;;;;25.58;46.29;100586.88;2064203;28;20133;-78
2022/07/24 01:37:43;;;;;;;6.68;2.53;;;;;;;25.58;46.39;100591.41;2064260;28;20137;-78
2022/07/24 01:39:05;;;;;;;10.95;2.47;;;;;;;25.57;46.54;100586.91;2069978;28;20572;-77
2022/07/24 01:40:27;;;;;;;;;;;;;;;25.54;46.69;100596.03;2069805;28;20049;-79
2022/07/24 01:41:49;;;;;;;7.03;2.25;;;;;;;25.50;46.75;100589.03;2069676;28;21816;-78
2022/07/24 01:43:11;;;;;;;4.13;1.83;;;;;;;25.49;46.78;100595.41;2064346;28;20054;-79
2022/07/24 01:44:33;;;;;;;6.15;2.25;;;;;;;25.49;46.82;100592.69;2068408;28;20470;-78
2022/07/24 01:45:54;;;;;;;8.15;2.60;;;;;;;25.50;46.75;100585.47;2064283;28;20133;-78
2022/07/24 01:47:17;;;;;;;7.72;2.47;;;;;;;25.49;47.14;100584.59;2055482;28;20488;-80
2022/07/24 01:48:40;;;;;;;6.90;2.65;;;;;;;25.50;47.01;100593.56;2069502;28;20042;-80
2022/07/24 01:50:01;;;;;;;10.82;2.60;;;;;;;25.52;47.28;100586.28;2061528;28;20061;-79
2022/07/24 01:51:25;;;;;;;10.20;3.05;;;;;;;25.50;47.16;100583.63;2066950;28;20426;-79
2022/07/24 01:52:48;;;;;;;6.80;2.80;;;;;;;25.48;47.22;100584.66;2065249;28;20170;-79
2022/07/24 01:54:10;;;;;;;7.55;2.17;;;;;;;25.45;47.07;100590.22;2064217;28;20544;-79
2022/07/24 01:55:33;;;;;;;6.40;2.35;;;;;;;25.42;47.23;100580.41;2065278;28;20128;-79
2022/07/24 01:56:54;;;;;;;7.50;2.40;;;;;;;25.40;47.45;100583.19;2061744;28;20142;-80
2022/07/24 01:58:17;;;;;;;6.18;2.30;;;;;;;25.40;47.40;100577.78;2069140;28;20537;-78
2022/07/24 01:59:40;;;;;;;6.25;2.28;;;;;;;25.40;47.17;100576.94;2069493;28;20056;-78
2022/07/24 02:01:01;;;;;;;7.38;2.40;;;;;;;25.39;47.15;100577.88;2072094;28;20052;-78
2022/07/24 02:02:24;;;;;;;10.40;3.13;;;;;;;25.37;47.50;100577.06;2060005;28;20133;-79
2022/07/24 02:03:46;;;;;;;7.13;2.78;;;;;;;25.36;47.24;100576.19;2050952;28;20050;-79
2022/07/24 02:05:10;;;;;;;7.68;2.38;;;;;;;25.37;47.45;100577.06;2061052;28;20101;-80
2022/07/24 02:06:34;;;;;;;8.02;2.53;;;;;;;25.39;47.42;100580.59;2061944;28;20070;-79
2022/07/24 02:08:00;;;;;;;6.85;2.17;;;;;;;25.36;47.12;100587.00;2057423;28;20038;-78
2022/07/24 02:09:23;;;;;;;11.15;2.45;;;;;;;25.33;47.39;100580.88;2067630;28;20050;-79
2022/07/24 02:10:44;;;;;;;5.05;2.40;;;;;;;25.31;47.24;100586.34;2053514;28;20593;-78
2022/07/24 02:12:07;;;;;;;10.35;3.28;;;;;;;25.28;47.25;100588.31;2056677;28;20105;-78
2022/07/24 02:13:29;;;;;;;5.68;2.05;;;;;;;25.25;47.37;100581.25;2061210;28;20137;-79
2022/07/24 02:14:51;;;;;;;8.30;2.95;;;;;;;25.20;47.51;100572.50;2082093;28;20053;-79
2022/07/24 02:16:13;;;;;;;7.55;2.40;;;;;;;25.17;47.66;100580.72;2072967;28;20085;-80
2022/07/24 02:17:36;;;;;;;6.18;2.15;;;;;;;25.15;47.72;100582.63;2067911;28;20375;-79
2022/07/24 02:18:58;;;;;;;6.45;2.58;;;;;;;25.20;47.49;100574.31;2069417;28;20838;-80
2022/07/24 02:20:20;;;;;;;12.57;2.90;;;;;;;25.22;47.39;100580.50;2061617;28;20738;-80
2022/07/24 02:21:44;;;;;;;6.60;2.47;;;;;;;25.23;47.53;100582.25;2061582;28;20038;-79
2022/07/24 02:23:06;;;;;;;8.82;2.40;;;;;;;25.22;47.27;100584.09;2067612;28;20111;-80
2022/07/24 02:24:28;;;;;;;5.82;2.50;;;;;;;25.17;47.59;100583.44;2073795;28;20126;-79
2022/07/24 02:25:50;;;;;;;8.55;2.47;;;;;;;25.15;47.49;100590.72;2061432;28;20050;-80
2022/07/24 02:27:13;;;;;;;5.53;1.80;;;;;;;25.14;47.53;100586.25;2066924;28;20120;-79
2022/07/24 02:28:35;;;;;;;9.50;2.42;;;;;;;25.11;47.65;100588.25;2060956;28;20498;-78
2022/07/24 02:29:57;;;;;;;7.90;2.15;;;;;;;25.10;47.58;100587.38;2065951;28;20140;-79
2022/07/24 02:31:19;;;;;;;5.65;1.95;;;;;;;25.09;47.61;100590.13;2069769;28;20449;-79
2022/07/24 02:32:41;;;;;;;6.40;2.22;;;;;;;25.10;47.44;100587.38;2069066;28;20033;-79
2022/07/24 02:34:03;;;;;;;6.40;2.30;;;;;;;25.11;47.41;100590.94;2069645;28;20144;-79
2022/07/24 02:35:25;;;;;;;10.52;2.30;;;;;;;25.13;47.31;100589.06;2069471;28;20060;-79
2022/07/24 02:36:49;;;;;;;11.52;2.72;;;;;;;25.15;47.01;100593.44;2069116;28;20491;-78
2022/07/24 02:38:11;;;;;;;11.52;2.75;;;;;;;25.17;47.32;100591.53;2076721;28;20603;-80
2022/07/24 02:39:33;;;;;;;8.13;2.33;;;;;;;25.19;47.07;100589.66;2067626;28;20076;-78
2022/07/24 02:40:55;;;;;;;9.85;2.08;;;;;;;25.18;47.12;100596.00;2074406;28;20111;-79
2022/07/24 02:42:18;;;;;;;10.27;3.40;;;;;;;25.17;47.24;100596.94;2077738;28;20387;-79
2022/07/24 02:43:40;;;;;;;7.10;2.53;;;;;;;25.14;47.29;100597.06;2071859;28;20073;-79
2022/07/24 02:45:02;;;;;;;6.35;2.47;;;;;;;25.08;47.27;100597.38;2070357;28;20065;-79
2022/07/24 02:46:25;;;;;;;4.22;2.45;;;;;;;25.06;47.44;100593.88;2069592;28;20046;-79
2022/07/24 02:47:48;;;;;;;10.38;3.08;;;;;;;25.06;47.36;100598.41;2079981;28;20048;-79
2022/07/24 02:49:10;;;;;;;7.53;2.47;;;;;;;25.04;47.33;100598.47;2065172;28;20137;-80
2022/07/24 02:50:35;;;;;;;6.85;2.63;;;;;;;25.06;47.10;100596.59;2064611;28;20053;-79
2022/07/24 02:51:59;;;;;;;5.43;2.33;;;;;;;25.08;47.06;100600.06;2077783;28;20087;-79
2022/07/24 02:53:22;;;;;;;9.10;2.30;;;;;;;25.08;47.30;100602.75;2072446;28;20093;-79
2022/07/24 02:54:44;;;;;;;6.38;2.13;;;;;;;25.14;47.18;100601.63;2062304;28;20046;-79
2022/07/24 02:56:07;;;;;;;5.10;2.20;;;;;;;25.18;46.88;100604.09;2057487;28;20057;-78
2022/07/24 02:57:28;;;;;;;5.55;2.35;;;;;;;25.19;47.09;100616.69;2066622;28;20150;-79
2022/07/24 02:58:51;;;;;;;4.75;2.28;;;;;;;25.19;46.76;100611.28;2067347;28;20058;-79
2022/07/24 03:00:14;;;;;;;6.68;3.10;;;;;;;25.20;46.78;100606.75;2069256;28;20084;-78
2022/07/24 03:01:37;;;;;;;6.55;1.88;;;;;;;25.19;46.98;100613.09;2076351;28;20046;-78
2022/07/24 03:02:58;;;;;;;8.30;2.70;;;;;;;25.20;46.96;100609.44;2075870;28;20497;-79
2022/07/24 03:04:21;;;;;;;8.50;2.50;;;;;;;25.18;46.70;100614.03;2068880;28;20042;-79
2022/07/24 03:05:42;;;;;;;4.85;2.42;;;;;;;25.14;47.05;100616.00;2055828;28;20067;-79
2022/07/24 03:07:06;;;;;;;8.32;2.42;;;;;;;25.16;47.10;100622.22;2058628;28;20101;-78
2022/07/24 03:08:28;;;;;;;5.57;2.35;;;;;;;25.23;46.92;100622.78;2072500;28;20065;-79
2022/07/24 03:09:50;;;;;;;6.07;2.38;;;;;;;25.25;46.93;100626.31;2069277;28;20062;-79
2022/07/24 03:11:12;;;;;;;5.03;2.10;;;;;;;25.24;46.67;100617.31;2070366;28;20417;-79
2022/07/24 03:12:34;;;;;;;9.45;2.30;;;;;;;25.22;46.88;100627.31;2068729;28;20077;-78
2022/07/24 03:13:56;;;;;;;5.03;2.13;;;;;;;25.20;47.12;100625.66;2069400;28;20046;-78
2022/07/24 03:15:19;;;;;;;7.13;2.58;;;;;;;25.18;46.94;100625.72;2073882;28;20037;-79
2022/07/24 03:16:40;;;;;;;7.63;2.30;;;;;;;25.16;47.01;100624.03;2079805;28;20069;-79
2022/07/24 03:18:03;;;;;;;5.95;2.70;;;;;;;25.18;47.05;100630.25;2074981;28;20444;-78
2022/07/24 03:19:24;;;;;;;7.65;3.05;;;;;;;25.21;47.17;100625.56;2068226;28;20141;-79
2022/07/24 03:20:47;;;;;;;7.65;2.47;;;;;;;25.21;47.28;100630.09;2076674;28;20049;-79
2022/07/24 03:22:13;;;;;;;6.60;2.88;;;;;;;25.22;47.10;100624.63;2069375;28;20078;-79
2022/07/24 03:23:36;;;;;;;6.80;2.55;;;;;;;25.23;47.24;100626.38;2059104;28;20050;-79
2022/07/24 03:25:00;;;;;;;9.82;2.65;;;;;;;25.24;47.07;100628.13;2067800;28;20045;-79
2022/07/24 03:26:23;;;;;;;6.80;2.92;;;;;;;25.23;47.16;100625.50;2069323;28;20391;-79
2022/07/24 03:27:47;;;;;;;4.20;2.22;;;;;;;25.22;47.40;100623.75;2069059;28;20061;-79
2022/07/24 03:29:10;;;;;;;6.65;2.72;;;;;;;25.22;47.17;100627.31;2069463;28;20054;-79
2022/07/24 03:30:32;;;;;;;8.32;2.50;;;;;;;25.21;47.31;100620.16;2067902;28;20045;-79
2022/07/24 03:31:54;;;;;;;5.53;2.50;;;;;;;25.23;47.51;100618.28;2069643;28;20093;-79
2022/07/24 03:33:16;;;;;;;9.65;3.10;;;;;;;25.25;47.28;100618.22;2073518;28;20046;-80
2022/07/24 03:34:38;;;;;;;6.25;2.22;;;;;;;25.31;47.59;100623.31;2078951;28;20070;-80
2022/07/24 03:36:01;;;;;;;5.85;2.45;;;;;;;25.35;47.46;100633.91;2062655;28;20138;-80
2022/07/24 03:37:26;;;;;;;6.13;2.70;;;;;;;25.40;47.12;100631.84;2069180;28;20107;-80
2022/07/24 03:38:48;;;;;;;7.18;2.63;;;;;;;25.45;47.34;100623.53;2070892;28;20100;-79
2022/07/24 03:40:10;;;;;;;13.48;2.92;;;;;;;25.50;46.95;100623.31;2070473;28;20070;-79
2022/07/24 03:41:33;;;;;;;5.70;2.25;;;;;;;25.56;47.05;100623.00;2070637;28;20057;-79
2022/07/24 03:42:55;;;;;;;5.53;2.50;;;;;;;25.59;47.26;100623.78;2070181;28;20050;-79
2022/07/24 03:44:18;;;;;;;8.88;2.70;;;;;;;25.66;47.13;100621.66;2063498;28;20554;-78
2022/07/24 03:45:40;;;;;;;6.38;2.40;;;;;;;25.70;47.44;100626.84;2067163;28;20532;-79
2022/07/24 03:47:01;;;;;;;6.32;2.53;;;;;;;25.75;47.07;100632.91;2070657;28;20057;-79
2022/07/24 03:48:24;;;;;;;10.18;2.00;;;;;;;25.84;47.28;100619.88;2062152;28;20077;-79
2022/07/24 03:49:46;;;;;;;9.57;2.58;;;;;;;25.93;46.88;100628.38;2067848;28;20041;-79
2022/07/24 03:51:09;;;;;;;6.90;2.60;;;;;;;26.02;46.98;100625.22;2070975;28;20445;-79
2022/07/24 03:52:33;;;;;;;9.00;2.85;;;;;;;26.10;46.88;100620.31;2085112;28;20049;-79
2022/07/24 03:53:55;;;;;;;7.70;2.40;;;;;;;26.18;46.68;100625.34;2065082;28;20073;-78
2022/07/24 03:55:17;;;;;;;5.95;2.53;;;;;;;26.26;46.76;100624.97;2060300;28;20043;-79
2022/07/24 03:56:39;;;;;;;9.07;2.70;;;;;;;26.31;46.47;100620.22;2075909;28;20066;-79
2022/07/24 03:58:01;;;;;;;11.98;2.67;;;;;;;26.40;46.52;100627.84;2086614;28;20053;-78
2022/07/24 03:59:23;;;;;;;10.32;2.70;;;;;;;26.47;46.43;100635.56;2078213;28;20049;-79
2022/07/24 04:00:46;;;;;;;7.78;2.30;;;;;;;26.55;46.24;100635.16;2077722;28;20037;-79
2022/07/24 04:02:07;;;;;;;8.00;2.70;;;;;;;26.66;46.35;100631.88;2078630;28;20050;-78
2022/07/24 04:03:30;;;;;;;5.63;2.25;;;;;;;26.73;46.03;100631.47;2070363;28;20046;-78
2022/07/24 04:04:52;;;;;;;7.18;2.15;;;;;;;26.81;45.96;100634.66;2063230;28;20498;-79
2022/07/24 04:06:15;;;;;;;6.68;2.05;;;;;;;26.89;45.94;100637.88;2067875;28;20080;-79
2022/07/24 04:07:39;;;;;;;8.95;3.72;;;;;;;27.00;45.76;100633.69;2070482;28;20494;-79
2022/07/24 04:09:04;;;;;;;8.32;2.60;;;;;;;27.10;45.81;100632.25;2073795;28;20073;-78
2022/07/24 04:10:26;;;;;;;4.82;2.20;;;;;;;27.21;45.59;100629.81;2078879;28;20172;-79
2022/07/24 04:11:48;;;;;;;5.25;2.08;;;;;;;27.33;45.44;100626.41;2073862;28;20524;-78
2022/07/24 04:13:11;;;;;;;6.53;2.35;;;;;;;27.43;45.04;100627.66;2070009;28;20549;-78
2022/07/24 04:14:34;;;;;;;4.75;2.20;;;;;;;27.55;45.02;100643.28;2071478;28;20430;-79
2022/07/24 04:15:58;;;;;;;5.43;2.05;;;;;;;27.68;44.65;100633.47;2062511;28;20144;-79
2022/07/24 04:17:20;;;;;;;8.43;1.92;;;;;;;27.83;44.50;100649.84;2068960;28;20085;-78
2022/07/24 04:18:43;;;;;;;7.43;2.50;;;;;;;27.93;44.30;100645.63;2070131;28;20049;-79
2022/07/24 04:20:07;;;;;;;8.40;2.65;;;;;;;28.05;44.13;100645.78;2065015;28;20081;-79
2022/07/24 04:21:29;;;;;;;16.10;2.47;;;;;;;28.17;43.96;100646.03;2072108;28;20053;-79
2022/07/24 04:22:53;;;;;;;8.05;2.92;;;;;;;28.30;43.87;100645.22;2078268;28;20049;-79
2022/07/24 04:24:15;;;;;;;7.97;2.63;;;;;;;28.44;43.66;100649.84;2078353;28;20045;-79
2022/07/24 04:25:38;;;;;;;13.30;2.25;;;;;;;28.57;43.34;100648.13;2069815;28;20045;-78
2022/07/24 04:27:00;;;;;;;20.33;2.42;;;;;;;28.69;42.93;100652.81;2078199;28;20525;-78
2022/07/24 04:28:22;;;;;;;5.70;2.28;;;;;;;28.81;42.73;100651.25;2062209;28;20081;-78
2022/07/24 04:29:44;;;;;;;8.60;2.30;;;;;;;28.91;42.70;100638.81;2069083;28;20050;-78
2022/07/24 04:31:06;;;;;;;5.20;2.10;;;;;;;29.04;42.46;100642.50;2064702;28;20070;-79
2022/07/24 04:32:28;;;;;;;8.02;2.15;;;;;;;29.16;42.18;100660.75;2066568;28;20042;-79
2022/07/24 04:33:50;;;;;;;9.55;2.50;;;;;;;29.27;41.88;100658.25;2070051;28;20084;-78
2022/07/24 04:35:13;;;;;;;9.48;2.58;;;;;;;29.38;41.95;100657.59;2070907;28;20045;-79
2022/07/24 04:36:34;;;;;;;7.53;3.53;;;;;;;29.51;41.77;100657.69;2078388;28;20521;-79
2022/07/24 04:37:58;;;;;;;8.55;2.10;;;;;;;29.67;41.29;100647.53;2071908;28;20851;-78
2022/07/24 04:39:21;;;;;;;9.70;2.80;;;;;;;29.85;41.18;100661.81;2075741;28;20140;-79
2022/07/24 04:40:44;;;;;;;11.43;2.63;;;;;;;30.03;41.11;100660.59;2070652;28;20056;-79
2022/07/24 04:42:07;;;;;;;5.60;2.42;;;;;;;30.19;40.62;100663.19;2072344;28;20053;-79
2022/07/24 04:43:30;;;;;;;7.25;2.58;;;;;;;30.32;40.19;100656.81;2071806;28;20068;-79
2022/07/24 04:44:53;;;;;;;6.85;2.30;;;;;;;30.46;40.10;100648.53;2081008;28;20511;-80
2022/07/24 04:46:14;;;;;;;8.23;2.10;;;;;;;30.55;39.47;100663.41;2072373;28;20042;-80
2022/07/24 04:47:37;;;;;;;11.02;2.38;;;;;;;30.64;39.55;100657.34;2070000;28;20048;-79
2022/07/24 04:48:59;;;;;;;9.07;2.70;;;;;;;30.74;38.97;100658.44;2070043;28;20502;-79
2022/07/24 04:50:22;;;;;;;9.07;2.25;;;;;;;30.81;38.83;100651.56;2065740;28;20394;-79
2022/07/24 04:51:50;;;;;;;7.97;2.30;;;;;;;30.92;38.57;100647.22;2071514;28;20061;-79
2022/07/24 04:53:14;;;;;;;9.13;2.80;;;;;;;31.05;38.38;100650.88;2069332;28;20053;-80
2022/07/24 04:54:36;;;;;;;10.93;2.53;;;;;;;31.20;38.05;100655.19;2072248;28;20517;-79
2022/07/24 04:55:58;;;;;;;10.75;2.95;;;;;;;31.33;37.85;100644.25;2077845;28;20046;-78
2022/07/24 04:57:20;;;;;;;8.70;2.30;;;;;;;31.37;37.63;100652.13;2072478;28;20629;-79
2022/07/24 04:58:42;;;;;;;11.30;3.20;;;;;;;31.47;37.58;100655.94;2066527;28;20072;-79
2022/07/24 05:00:09;;;;;;;5.85;2.42;;;;;;;31.67;37.14;100662.69;2069788;28;20060;-79
2022/07/24 05:01:32;;;;;;;6.85;2.63;;;;;;;31.95;37.04;100650.59;2076060;28;20063;-79
2022/07/24 05:02:54;;;;;;;9.82;3.28;;;;;;;32.21;36.52;100654.09;2067727;28;20107;-79
2022/07/24 05:04:15;;;;;;;8.48;2.60;;;;;;;32.44;36.37;100654.06;2068728;28;20521;-80
2022/07/24 05:05:38;;;;;;;11.18;2.63;;;;;;;32.63;35.78;100652.63;2067756;28;20060;-79
2022/07/24 05:07:00;;;;;;;8.48;2.30;;;;;;;32.76;35.16;100657.06;2070813;28;20553;-79
2022/07/24 05:08:23;;;;;;;8.63;2.63;;;;;;;32.85;34.98;100652.75;2053941;28;20054;-78
2022/07/24 05:09:46;;;;;;;6.75;2.30;;;;;;;32.97;34.77;100654.50;2063447;28;20046;-79
2022/07/24 05:11:09;;;;;;;5.82;2.60;;;;;;;33.14;34.35;100648.56;2061903;28;20055;-78
2022/07/24 05:12:32;;;;;;;9.43;3.50;;;;;;;33.31;34.32;100654.56;2073229;28;20049;-78
2022/07/24 05:13:54;;;;;;;6.72;2.60;;;;;;;33.45;33.87;100648.84;2071823;28;20054;-79
2022/07/24 05:15:17;;;;;;;7.88;2.50;;;;;;;33.59;33.86;100652.19;2061861;28;20085;-79
2022/07/24 05:16:39;;;;;;;5.75;2.45;;;;;;;33.80;33.48;100649.59;2077986;28;20590;-80
2022/07/24 05:18:02;;;;;;;14.85;3.10;;;;;;;34.02;33.21;100654.13;2063106;28;20105;-79
2022/07/24 05:19:23;;;;;;;6.70;2.50;;;;;;;34.27;32.91;100650.19;2069037;28;20081;-79
2022/07/24 05:20:46;;;;;;;6.40;2.50;;;;;;;34.48;32.37;100648.38;2061797;28;20170;-79
2022/07/24 05:22:08;;;;;;;7.93;2.20;;;;;;;34.68;32.27;100655.75;2069336;28;20058;-80
2022/07/24 05:23:32;;;;;;;11.50;2.28;;;;;;;34.93;31.98;100646.25;2069561;28;20049;-80
2022/07/24 05:24:55;;;;;;;7.22;2.30;;;;;;;35.08;31.65;100644.91;2072631;28;20518;-79
2022/07/24 05:26:16;;;;;;;7.82;2.42;;;;;;;35.22;31.50;100649.22;2064500;28;20141;-79
2022/07/24 05:27:38;;;;;;;8.95;2.58;;;;;;;35.29;31.15;100653.16;2068837;28;20053;-79
2022/07/24 05:29:01;;;;;;;5.00;2.13;;;;;;;35.37;30.84;100653.34;2065693;28;20088;-79
2022/07/24 05:30:23;;;;;;;5.72;2.30;;;;;;;35.53;30.41;100653.69;2062032;28;20561;-79
2022/07/24 05:31:46;;;;;;;5.97;2.40;;;;;;;35.69;30.08;100655.03;2066686;28;20150;-79
2022/07/24 05:33:08;;;;;;;7.53;2.83;;;;;;;35.83;30.40;100649.19;2062001;28;20085;-79
2022/07/24 05:34:31;;;;;;;9.65;2.58;;;;;;;35.92;29.76;100654.69;2069572;28;20069;-79
2022/07/24 05:35:54;;;;;;;11.02;2.55;;;;;;;35.90;29.42;100644.88;2068059;28;20049;-79
2022/07/24 05:37:16;;;;;;;6.68;2.30;;;;;;;35.85;29.53;100649.88;2068581;28;20045;-79
2022/07/24 05:38:40;;;;;;;7.00;3.03;;;;;;;35.87;29.37;100647.88;2066832;28;20045;-79
2022/07/24 05:40:03;;;;;;;9.23;3.10;;;;;;;35.96;29.69;100647.03;2066106;28;20064;-79
2022/07/24 05:41:26;;;;;;;9.68;2.65;;;;;;;36.03;29.42;100653.72;2067862;28;20049;-79
2022/07/24 05:42:47;;;;;;;7.88;2.55;;;;;;;36.06;29.38;100647.91;2075330;28;20060;-79
2022/07/24 05:44:10;;;;;;;9.15;3.25;;;;;;;36.02;28.81;100645.59;2072164;28;20125;-79
2022/07/24 05:45:32;;;;;;;9.38;2.45;;;;;;;35.96;29.00;100649.78;2067067;28;20059;-78
2022/07/24 05:46:54;;;;;;;8.07;2.42;;;;;;;35.91;28.66;100650.19;2061542;28;20141;-79
2022/07/24 05:48:17;;;;;;;7.97;2.65;;;;;;;35.84;28.63;100654.50;2066199;28;20136;-78
2022/07/24 05:49:39;;;;;;;5.57;2.50;;;;;;;35.76;28.64;100650.75;2069342;28;20352;-78
2022/07/24 05:51:02;;;;;;;7.70;2.20;;;;;;;35.78;28.81;100656.97;2069236;28;20080;-78
2022/07/24 05:52:23;;;;;;;8.95;2.70;;;;;;;35.87;28.29;100646.00;2072214;28;20076;-79
2022/07/24 05:53:47;;;;;;;7.10;2.85;;;;;;;35.89;28.49;100651.38;2068723;28;20755;-79
2022/07/24 05:55:11;;;;;;;6.20;2.55;;;;;;;35.96;28.83;100655.28;2068931;28;20069;-79
2022/07/24 05:56:33;;;;;;;11.43;2.75;;;;;;;36.05;28.46;100657.16;2071833;28;20042;-78
2022/07/24 05:57:56;;;;;;;6.68;2.38;;;;;;;35.97;28.31;100657.88;2060554;28;20050;-78
2022/07/24 05:59:18;;;;;;;10.32;3.35;;;;;;;35.92;28.20;100649.19;2066283;28;20045;-78
2022/07/24 06:00:41;;;;;;;7.32;2.50;;;;;;;35.87;28.42;100648.75;2070091;28;20150;-77
2022/07/24 06:02:04;;;;;;;15.45;2.88;;;;;;;36.03;28.27;100650.97;2061107;28;20069;-78
2022/07/24 06:03:27;;;;;;;7.05;2.72;;;;;;;36.14;28.13;100652.69;2074866;28;20052;-78
2022/07/24 06:04:49;;;;;;;7.97;2.20;;;;;;;36.18;27.90;100659.69;2076318;28;20618;-78
2022/07/24 06:06:12;;;;;;;6.35;2.40;;;;;;;36.26;28.12;100649.69;2077266;28;20126;-77
2022/07/24 06:07:34;;;;;;;10.98;2.40;;;;;;;36.34;27.80;100649.84;2064149;28;20490;-77
2022/07/24 06:08:58;;;;;;;8.73;2.65;;;;;;;36.28;27.80;100655.94;2069626;28;20062;-77
2022/07/24 06:10:21;;;;;;;6.13;3.08;;;;;;;36.14;27.95;100650.81;2069139;28;20071;-77
2022/07/24 06:11:44;;;;;;;9.85;2.67;;;;;;;35.93;28.29;100650.94;2077562;28;20052;-78
2022/07/24 06:13:07;;;;;;;7.72;2.45;;;;;;;35.92;28.25;100648.31;2074367;28;20588;-77
2022/07/24 06:14:29;;;;;;;5.63;2.35;;;;;;;36.06;28.45;100647.03;2068492;28;20050;-77
2022/07/24 06:15:52;;;;;;;6.40;2.60;;;;;;;36.29;28.08;100651.31;2069593;28;20141;-77
2022/07/24 06:17:14;;;;;;;9.38;2.70;;;;;;;36.52;27.77;100660.13;2064402;28;20391;-77
2022/07/24 06:18:37;;;;;;;9.02;2.63;;;;;;;36.63;27.62;100662.72;2060762;28;20557;-79
2022/07/24 06:19:58;;;;;;;7.00;2.25;;;;;;;36.64;26.92;100653.44;2064540;28;20137;-78
2022/07/24 06:21:21;;;;;;;5.80;2.67;;;;;;;36.48;27.33;100661.44;2069096;28;20034;-78
2022/07/24 06:22:43;;;;;;;6.45;2.58;;;;;;;36.47;27.11;100656.94;2064449;28;20049;-79
2022/07/24 06:24:09;;;;;;;8.10;2.30;;;;;;;36.42;27.18;100648.28;2065584;28;20687;-78